Terminal Aerodrome Forecast
Issued by NWS Central Illinois

Home | Current Version | Previous Version | Text Only | Print | Product List | Glossary On
Versions: 1 2 3 4 5 6 7 8 9 10 11 12 13 14 15 16 17 18
000
FTUS43 KILX 311100
TAFPIA
TAF
KPIA 311120Z 3112/0112 21007KT P6SM BKN090
     FM311700 22009KT P6SM BKN050
     FM312100 21008KT 6SM -RA BR OVC025
     FM010200 16008KT 2SM -RASN BR OVC007
     FM010700 11009KT 1SM -SN BR OVC007=

USA.gov is the U.S. government's official web portal to all federal, state and local government web resources and services.